Izki — V7XV2 — position and weather

sailwx.info

Track history (hours):
 
Tides and Currents Weather Stations Pressure Air Temp Water Temp Dewpoint Dewpoint Depression Visibility Wind Speed Wind Dir Waves Ship Positions

Izki

Last reported at 2016-Dec-26 10:15 UTC. Time now 2017-Jan-20 12:08 UTC.
Position N 02°03' E 102°10'.
Warning: this ship's position is 25 days out of date.

Length 333 m; draft 11 m.

Type: Tanker. MMSI: 538004578.

Date/timePositionNaut miles runAvg speedWind from/ knotsBaromVisibWave heightAir tempDewpointWater temp
2016-Dec-26 10:15N 02°03' E 102°10'1013.5
2016-Dec-26 09:33N 01°56' E 102°18'1414.0
2016-Dec-26 08:33N 01°50' E 102°30'1514.7
2016-Dec-26 07:32N 01°43' E 102°43'6214.1
2016-Dec-26 03:07N 01°11' E 103°37'610.9
2016-Dec-26 02:31N 01°09' E 103°43'1010.6
2016-Dec-26 01:33N 01°13' E 103°52'4 3.9
2016-Dec-26 00:33N 01°16' E 103°55'1 0.7
2016-Dec-25 23:32N 01°15' E 103°54'0 0.0
2016-Dec-25 22:32N 01°15' E 103°54'0 0.1
2016-Dec-25 21:17N 01°15' E 103°54'0 0.0
2016-Dec-25 20:26N 01°15' E 103°54'0 0.0
2016-Dec-25 19:26N 01°15' E 103°54'0 0.0
2016-Dec-25 18:12N 01°15' E 103°54'0 0.0
2016-Dec-25 17:33N 01°15' E 103°54'0 0.0
2016-Dec-25 16:16N 01°15' E 103°54'0 0.1
2016-Dec-25 15:32N 01°15' E 103°54'0 0.1
2016-Dec-25 14:32N 01°15' E 103°54'0 0.0
2016-Dec-25 13:29N 01°15' E 103°54'0 0.0
2016-Dec-25 12:26N 01°15' E 103°54'0 0.1
2016-Dec-25 11:32N 01°15' E 103°54'0 0.0
2016-Dec-25 10:30N 01°15' E 103°54'0 0.2
2016-Dec-25 09:33N 01°15' E 103°55'0 0.1
2016-Dec-25 06:12N 01°15' E 103°55'0 0.1
2016-Dec-25 05:18N 01°15' E 103°55'0 0.1
2016-Dec-25 04:32N 01°15' E 103°55'0 0.1
2016-Dec-25 03:05N 01°15' E 103°54'0 0.1
2016-Dec-25 02:26N 01°15' E 103°54'0 0.0
2016-Dec-25 01:27N 01°15' E 103°54'0 0.5
2016-Dec-25 00:33N 01°15' E 103°54'5 5.2
2016-Dec-24 23:33N 01°16' E 103°59'5 4.4
2016-Dec-24 22:32N 01°16' E 104°04'5 4.8
2016-Dec-24 21:33N 01°17' E 104°09'4 4.4
2016-Dec-24 20:33N 01°18' E 104°13'  
Track history (hours):
 
Tides and Currents Weather Stations Pressure Air Temp Water Temp Dewpoint Dewpoint Depression Visibility Wind Speed Wind Dir Waves Ship Positions

Izki

Last reported at 2016-Dec-26 10:15 UTC. Time now 2017-Jan-20 12:08 UTC.
Position N 02°03' E 102°10'.
Warning: this ship's position is 25 days out of date.

Length 333 m; draft 11 m.

Type: Tanker. MMSI: 538004578.

Date/timePositionNaut miles runAvg speedWind from/ knotsBaromVisibWave heightAir tempDewpointWater temp
2016-Dec-26 10:15N 02°03' E 102°10'1013.5
2016-Dec-26 09:33N 01°56' E 102°18'1414.0
2016-Dec-26 08:33N 01°50' E 102°30'1514.7
2016-Dec-26 07:32N 01°43' E 102°43'6214.1
2016-Dec-26 03:07N 01°11' E 103°37'610.9
2016-Dec-26 02:31N 01°09' E 103°43'1010.6
2016-Dec-26 01:33N 01°13' E 103°52'4 3.9
2016-Dec-26 00:33N 01°16' E 103°55'1 0.7
2016-Dec-25 23:32N 01°15' E 103°54'0 0.0
2016-Dec-25 22:32N 01°15' E 103°54'0 0.1
2016-Dec-25 21:17N 01°15' E 103°54'0 0.0
2016-Dec-25 20:26N 01°15' E 103°54'0 0.0
2016-Dec-25 19:26N 01°15' E 103°54'0 0.0
2016-Dec-25 18:12N 01°15' E 103°54'0 0.0
2016-Dec-25 17:33N 01°15' E 103°54'0 0.0
2016-Dec-25 16:16N 01°15' E 103°54'0 0.1
2016-Dec-25 15:32N 01°15' E 103°54'0 0.1
2016-Dec-25 14:32N 01°15' E 103°54'0 0.0
2016-Dec-25 13:29N 01°15' E 103°54'0 0.0
2016-Dec-25 12:26N 01°15' E 103°54'0 0.1
2016-Dec-25 11:32N 01°15' E 103°54'0 0.0
2016-Dec-25 10:30N 01°15' E 103°54'0 0.2
2016-Dec-25 09:33N 01°15' E 103°55'0 0.1
2016-Dec-25 06:12N 01°15' E 103°55'0 0.1
2016-Dec-25 05:18N 01°15' E 103°55'0 0.1
2016-Dec-25 04:32N 01°15' E 103°55'0 0.1
2016-Dec-25 03:05N 01°15' E 103°54'0 0.1
2016-Dec-25 02:26N 01°15' E 103°54'0 0.0
2016-Dec-25 01:27N 01°15' E 103°54'0 0.5
2016-Dec-25 00:33N 01°15' E 103°54'5 5.2
2016-Dec-24 23:33N 01°16' E 103°59'5 4.4
2016-Dec-24 22:32N 01°16' E 104°04'5 4.8
2016-Dec-24 21:33N 01°17' E 104°09'4 4.4
2016-Dec-24 20:33N 01°18' E 104°13'  

Dump ship's entire track history